^^
Grace C. Lehan Memorial Weather Station Historical Data
Daily Summary for May 2, 2021 Units:  Both    English   Metric
Daily Weekly Monthly Yearly
  High: Low: Average:
Temperature: 80.3 °F /  26.8 °C 62.6 °F /  17 °C 71.8 °F /  22.1 °C
Dew Point: 64.4 °F /  18 °C 57.8 °F /  14.3 °C 62 °F /  16.7 °C
Humidity: 95.2% 51.8% 73%
Wind Speed: 6.8mph /  10.9km/h - 1.6mph /  2.6km/h
Wind Gust: 17mph /  27.4km/h - -
Wind- - WNW
Pressure: 30.03 in /  1016.8 hPa 29.78 in /  1008.4 hPa -
Precipitation: 0.00 in /  0 mm    
 
 
Tabular Data for May 2, 2021
Time Temperature Dew Point Pressure Wind Wind Speed Wind Gust Humidity Rainfall Rate (Hourly) solar
00:00 65.8 °F /  18.8 °C 63.4 °F /  17.4 °C 29.79in /  1008.7hPa Calm     92% 0.00in /  0mm 0 W/m2
00:09 65.7 °F /  18.7 °C 63.3 °F /  17.4 °C 29.79in /  1008.7hPa Calm     91.7% 0.00in /  0mm 0 W/m2
00:14 65.6 °F /  18.7 °C 62.9 °F /  17.2 °C 29.79in /  1008.7hPa Calm     91.1% 0.00in /  0mm 0 W/m2
00:19 65.4 °F /  18.6 °C 62.6 °F /  17 °C 29.79in /  1008.7hPa Calm     90.6% 0.00in /  0mm 0 W/m2
00:24 65.4 °F /  18.6 °C 62.4 °F /  16.9 °C 29.79in /  1008.7hPa Calm     90% 0.00in /  0mm 0 W/m2
00:29 65.4 °F /  18.6 °C 62.4 °F /  16.9 °C 29.79in /  1008.7hPa Calm     90% 0.00in /  0mm 0 W/m2
00:34 65.5 °F /  18.6 °C 62.5 °F /  16.9 °C 29.79in /  1008.7hPa Calm     90% 0.00in /  0mm 0 W/m2
00:39 65.5 °F /  18.6 °C 62.8 °F /  17.1 °C 29.79in /  1008.7hPa Calm     91% 0.00in /  0mm 0 W/m2
00:44 65.5 °F /  18.6 °C 62.8 °F /  17.1 °C 29.79in /  1008.7hPa Calm     91.1% 0.00in /  0mm 0 W/m2
00:49 65.4 °F /  18.6 °C 62.8 °F /  17.1 °C 29.80in /  1009hPa Calm     91.2% 0.00in /  0mm 0 W/m2
00:54 65.4 °F /  18.6 °C 62.7 °F /  17.1 °C 29.80in /  1009hPa Calm     91% 0.00in /  0mm 0 W/m2
00:59 65.4 °F /  18.6 °C 62.7 °F /  17.1 °C 29.80in /  1009hPa Calm     91% 0.00in /  0mm 0 W/m2
01:04 65.5 °F /  18.6 °C 62.9 °F /  17.2 °C 29.80in /  1009hPa Calm     91.4% 0.00in /  0mm 0 W/m2
01:09 65.5 °F /  18.6 °C 63.1 °F /  17.3 °C 29.80in /  1009hPa Calm     92% 0.00in /  0mm 0 W/m2
01:14 65.4 °F /  18.6 °C 63 °F /  17.2 °C 29.80in /  1009hPa Calm     92% 0.00in /  0mm 0 W/m2
01:19 65.3 °F /  18.5 °C 62.9 °F /  17.2 °C 29.80in /  1009hPa Calm     92% 0.00in /  0mm 0 W/m2
01:24 65.3 °F /  18.5 °C 62.9 °F /  17.2 °C 29.80in /  1009hPa Calm     92% 0.00in /  0mm 0 W/m2
01:29 65.4 °F /  18.6 °C 63 °F /  17.2 °C 29.80in /  1009hPa Calm     92% 0.00in /  0mm 0 W/m2
01:34 65.4 °F /  18.6 °C 63 °F /  17.2 °C 29.80in /  1009hPa Calm     92% 0.00in /  0mm 0 W/m2
01:39 65.4 °F /  18.6 °C 63 °F /  17.2 °C 29.80in /  1009hPa Calm     92% 0.00in /  0mm 0 W/m2
01:44 65.3 °F /  18.5 °C 63 °F /  17.2 °C 29.80in /  1009hPa Calm     92.3% 0.00in /  0mm 0 W/m2
01:49 65.3 °F /  18.5 °C 63.2 °F /  17.3 °C 29.81in /  1009.4hPa Calm     93% 0.00in /  0mm 0 W/m2
01:54 65.3 °F /  18.5 °C 63.2 °F /  17.3 °C 29.80in /  1009hPa Calm     93% 0.00in /  0mm 0 W/m2
01:59 65.3 °F /  18.5 °C 63.2 °F /  17.3 °C 29.80in /  1009hPa Calm     93% 0.00in /  0mm 0 W/m2
02:04 65.4 °F /  18.6 °C 63.3 °F /  17.4 °C 29.80in /  1009hPa Calm     93% 0.00in /  0mm 0 W/m2
02:09 65.4 °F /  18.6 °C 63.3 °F /  17.4 °C 29.80in /  1009hPa Calm     93% 0.00in /  0mm 0 W/m2
02:14 65.4 °F /  18.6 °C 63.3 °F /  17.4 °C 29.80in /  1009hPa Calm     93% 0.00in /  0mm 0 W/m2
02:19 65.3 °F /  18.5 °C 63.3 °F /  17.4 °C 29.80in /  1009hPa Calm     93% 0.00in /  0mm 0 W/m2
02:24 65.3 °F /  18.5 °C 63.2 °F /  17.3 °C 29.80in /  1009hPa Calm     93% 0.00in /  0mm 0 W/m2
02:29 65.2 °F /  18.4 °C 63.2 °F /  17.3 °C 29.79in /  1008.7hPa Calm     93% 0.00in /  0mm 0 W/m2
02:34 65.2 °F /  18.4 °C 63.1 °F /  17.3 °C 29.79in /  1008.7hPa Calm     93% 0.00in /  0mm 0 W/m2
02:39 65.1 °F /  18.4 °C 63 °F /  17.2 °C 29.79in /  1008.7hPa Calm     93% 0.00in /  0mm 0 W/m2
02:44 65 °F /  18.3 °C 62.9 °F /  17.2 °C 29.79in /  1008.7hPa Calm     93% 0.00in /  0mm 0 W/m2
02:49 64.9 °F /  18.3 °C 62.8 °F /  17.1 °C 29.79in /  1008.7hPa Calm     93% 0.00in /  0mm 0 W/m2
02:54 64.9 °F /  18.3 °C 62.8 °F /  17.1 °C 29.79in /  1008.7hPa Calm     93% 0.00in /  0mm 0 W/m2
02:59 64.9 °F /  18.3 °C 62.8 °F /  17.1 °C 29.79in /  1008.7hPa Calm     93% 0.00in /  0mm 0 W/m2
03:04 64.9 °F /  18.3 °C 62.8 °F /  17.1 °C 29.79in /  1008.7hPa Calm     93% 0.00in /  0mm 0 W/m2
03:09 64.9 °F /  18.3 °C 62.8 °F /  17.1 °C 29.79in /  1008.7hPa Calm     93% 0.00in /  0mm 0 W/m2
03:14 64.9 °F /  18.3 °C 63.1 °F /  17.3 °C 29.79in /  1008.7hPa Calm     93.9% 0.00in /  0mm 0 W/m2
03:19 64.9 °F /  18.3 °C 63.1 °F /  17.3 °C 29.79in /  1008.7hPa Calm     94% 0.00in /  0mm 0 W/m2
03:24 64.9 °F /  18.3 °C 63.1 °F /  17.3 °C 29.79in /  1008.7hPa Calm     94% 0.00in /  0mm 0 W/m2
03:29 64.9 °F /  18.3 °C 63.1 °F /  17.3 °C 29.79in /  1008.7hPa Calm     94% 0.00in /  0mm 0 W/m2
03:34 64.9 °F /  18.3 °C 63.1 °F /  17.3 °C 29.79in /  1008.7hPa Calm     94% 0.00in /  0mm 0 W/m2
03:39 64.9 °F /  18.3 °C 63.1 °F /  17.3 °C 29.78in /  1008.4hPa Calm     94% 0.00in /  0mm 0 W/m2
03:44 64.9 °F /  18.3 °C 63.1 °F /  17.3 °C 29.78in /  1008.4hPa Calm     94% 0.00in /  0mm 0 W/m2
03:49 64.8 °F /  18.2 °C 63 °F /  17.2 °C 29.78in /  1008.4hPa Calm     94% 0.00in /  0mm 0 W/m2
03:54 64.7 °F /  18.2 °C 63 °F /  17.2 °C 29.78in /  1008.4hPa Calm     94% 0.00in /  0mm 0 W/m2
03:59 64.6 °F /  18.1 °C 62.9 °F /  17.2 °C 29.79in /  1008.7hPa Calm     94% 0.00in /  0mm 0 W/m2
04:00 64.6 °F /  18.1 °C 62.8 °F /  17.1 °C 29.78in /  1008.4hPa Calm     94% 0.00in /  0mm 0 W/m2
04:09 64.5 °F /  18.1 °C 62.7 °F /  17.1 °C 29.79in /  1008.7hPa Calm     94% 0.00in /  0mm 0 W/m2
04:14 64.4 °F /  18 °C 62.6 °F /  17 °C 29.80in /  1009hPa Calm     94% 0.00in /  0mm 0 W/m2
04:19 64.4 °F /  18 °C 62.6 °F /  17 °C 29.80in /  1009hPa Calm     94% 0.00in /  0mm 0 W/m2
04:24 64.4 °F /  18 °C 62.6 °F /  17 °C 29.80in /  1009hPa Calm     94% 0.00in /  0mm 0 W/m2
04:29 64.4 °F /  18 °C 62.6 °F /  17 °C 29.79in /  1008.7hPa Calm     94% 0.00in /  0mm 0 W/m2
04:34 64.3 °F /  17.9 °C 62.6 °F /  17 °C 29.80in /  1009hPa Calm     94% 0.00in /  0mm 0 W/m2
04:39 64.3 °F /  17.9 °C 62.5 °F /  16.9 °C 29.80in /  1009hPa Calm     94% 0.00in /  0mm 0 W/m2
04:44 64.2 °F /  17.9 °C 62.4 °F /  16.9 °C 29.79in /  1008.7hPa Calm     94% 0.00in /  0mm 0 W/m2
04:49 64.1 °F /  17.8 °C 62.3 °F /  16.8 °C 29.79in /  1008.7hPa Calm     94% 0.00in /  0mm 0 W/m2
04:54 64 °F /  17.8 °C 62.2 °F /  16.8 °C 29.79in /  1008.7hPa Calm     94% 0.00in /  0mm 0 W/m2
04:59 63.9 °F /  17.7 °C 62.1 °F /  16.7 °C 29.79in /  1008.7hPa Calm     94% 0.00in /  0mm 0 W/m2
05:04 63.7 °F /  17.6 °C 62 °F /  16.7 °C 29.79in /  1008.7hPa Calm     94% 0.00in /  0mm 0 W/m2
05:09 63.6 °F /  17.6 °C 61.8 °F /  16.6 °C 29.80in /  1009hPa Calm     94% 0.00in /  0mm 0 W/m2
05:14 63.5 °F /  17.5 °C 61.7 °F /  16.5 °C 29.80in /  1009hPa Calm     94% 0.00in /  0mm 0 W/m2
05:19 63.3 °F /  17.4 °C 61.6 °F /  16.4 °C 29.80in /  1009hPa Calm     94% 0.00in /  0mm 0 W/m2
05:24 63.2 °F /  17.3 °C 61.5 °F /  16.4 °C 29.80in /  1009hPa Calm     94% 0.00in /  0mm 0 W/m2
05:29 63.1 °F /  17.3 °C 61.4 °F /  16.3 °C 29.80in /  1009hPa Calm     94% 0.00in /  0mm 0 W/m2
05:34 63 °F /  17.2 °C 61.3 °F /  16.3 °C 29.80in /  1009hPa Calm     94% 0.00in /  0mm 0 W/m2
05:39 62.9 °F /  17.2 °C 61.2 °F /  16.2 °C 29.81in /  1009.4hPa Calm     94% 0.00in /  0mm 0 W/m2
05:44 62.9 °F /  17.2 °C 61.1 °F /  16.2 °C 29.81in /  1009.4hPa Calm     94% 0.00in /  0mm 0 W/m2
05:49 62.9 °F /  17.2 °C 61.2 °F /  16.2 °C 29.81in /  1009.4hPa Calm     94% 0.00in /  0mm 0 W/m2
05:54 62.9 °F /  17.2 °C 61.3 °F /  16.3 °C 29.81in /  1009.4hPa Calm     94.3% 0.00in /  0mm 0 W/m2
05:59 62.9 °F /  17.2 °C 61.2 °F /  16.2 °C 29.81in /  1009.4hPa Calm   1mph /  1.6km/h 94% 0.00in /  0mm 5 W/m2
06:04 62.9 °F /  17.2 °C 61.1 °F /  16.2 °C 29.81in /  1009.4hPa Calm   1mph /  1.6km/h 94% 0.00in /  0mm 7 W/m2
06:09 62.7 °F /  17.1 °C 61 °F /  16.1 °C 29.81in /  1009.4hPa Calm     94% 0.00in /  0mm 11 W/m2
06:14 62.6 °F /  17 °C 60.9 °F /  16.1 °C 29.82in /  1009.7hPa Calm     94% 0.00in /  0mm 14 W/m2
06:19 62.6 °F /  17 °C 60.8 °F /  16 °C 29.82in /  1009.7hPa Calm     94% 0.00in /  0mm 16 W/m2
06:24 62.6 °F /  17 °C 60.8 °F /  16 °C 29.82in /  1009.7hPa Calm     94% 0.00in /  0mm 18 W/m2
06:29 62.6 °F /  17 °C 61 °F /  16.1 °C 29.82in /  1009.7hPa Calm     94.7% 0.00in /  0mm 19 W/m2
06:34 62.6 °F /  17 °C 61.2 °F /  16.2 °C 29.82in /  1009.7hPa Calm     95% 0.00in /  0mm 21 W/m2
06:39 62.7 °F /  17.1 °C 61.3 °F /  16.3 °C 29.82in /  1009.7hPa Calm     95% 0.00in /  0mm 26 W/m2
06:44 62.8 °F /  17.1 °C 61.4 °F /  16.3 °C 29.83in /  1010hPa Calm     95% 0.00in /  0mm 32 W/m2
06:49 62.9 °F /  17.2 °C 61.4 °F /  16.3 °C 29.83in /  1010hPa Calm     95% 0.00in /  0mm 42 W/m2
06:54 63.1 °F /  17.3 °C 61.6 °F /  16.4 °C 29.83in /  1010hPa Calm     95% 0.00in /  0mm 95 W/m2
06:59 63.3 °F /  17.4 °C 61.9 °F /  16.6 °C 29.83in /  1010hPa Calm     95% 0.00in /  0mm 130 W/m2
07:04 63.7 °F /  17.6 °C 62.3 °F /  16.8 °C 29.83in /  1010hPa Calm     95% 0.00in /  0mm 144 W/m2
07:09 64.2 °F /  17.9 °C 62.8 °F /  17.1 °C 29.83in /  1010hPa SSW 0.1mph /  0.2km/h 2mph /  3.2km/h 95.2% 0.00in /  0mm 155 W/m2
07:14 64.8 °F /  18.2 °C 63.3 °F /  17.4 °C 29.83in /  1010hPa Calm   2mph /  3.2km/h 95% 0.00in /  0mm 167 W/m2
07:19 65.5 °F /  18.6 °C 64 °F /  17.8 °C 29.84in /  1010.4hPa SSW 0.1mph /  0.2km/h 3mph /  4.8km/h 95% 0.00in /  0mm 183 W/m2
07:24 66.1 °F /  18.9 °C 64.1 °F /  17.8 °C 29.84in /  1010.4hPa SW 0.3mph /  0.5km/h 3mph /  4.8km/h 93.2% 0.00in /  0mm 204 W/m2
07:29 66.9 °F /  19.4 °C 64 °F /  17.8 °C 29.84in /  1010.4hPa WNW 0.1mph /  0.2km/h 3mph /  4.8km/h 90.6% 0.00in /  0mm 221 W/m2
07:34 67.6 °F /  19.8 °C 63.9 °F /  17.7 °C 29.84in /  1010.4hPa Calm   3mph /  4.8km/h 88% 0.00in /  0mm 241 W/m2
07:39 68.3 °F /  20.2 °C 64.1 °F /  17.8 °C 29.84in /  1010.4hPa Calm     86.6% 0.00in /  0mm 262 W/m2
07:44 68.8 °F /  20.4 °C 64.1 °F /  17.8 °C 29.84in /  1010.4hPa Calm     85% 0.00in /  0mm 274 W/m2
07:49 69.2 °F /  20.7 °C 63.8 °F /  17.7 °C 29.84in /  1010.4hPa Calm     82.8% 0.00in /  0mm 292 W/m2
07:54 69.6 °F /  20.9 °C 63.8 °F /  17.7 °C 29.84in /  1010.4hPa Calm     81.7% 0.00in /  0mm 316 W/m2
07:59 70 °F /  21.1 °C 64.2 °F /  17.9 °C 29.84in /  1010.4hPa WNW 0.2mph /  0.3km/h 3mph /  4.8km/h 81.7% 0.00in /  0mm 329 W/m2
08:00 70.2 °F /  21.2 °C 64.1 °F /  17.8 °C 29.84in /  1010.4hPa Calm   3mph /  4.8km/h 81% 0.00in /  0mm 329 W/m2
08:09 70.5 °F /  21.4 °C 64.2 °F /  17.9 °C 29.84in /  1010.4hPa WNW 2.3mph /  3.7km/h 10mph /  16.1km/h 80.3% 0.00in /  0mm 362 W/m2
08:14 70.6 °F /  21.4 °C 63.5 °F /  17.5 °C 29.84in /  1010.4hPa WNW 2.7mph /  4.3km/h 10mph /  16.1km/h 78.2% 0.00in /  0mm 381 W/m2
08:19 70.7 °F /  21.5 °C 63.7 °F /  17.6 °C 29.85in /  1010.7hPa WNW 2.3mph /  3.7km/h 10mph /  16.1km/h 78.4% 0.00in /  0mm 397 W/m2
08:24 71 °F /  21.7 °C 63.9 °F /  17.7 °C 29.85in /  1010.7hPa WNW 1.2mph /  1.9km/h 10mph /  16.1km/h 78.2% 0.00in /  0mm 411 W/m2
08:29 71.3 °F /  21.8 °C 64.1 °F /  17.8 °C 29.85in /  1010.7hPa NW 2.2mph /  3.5km/h 10mph /  16.1km/h 77.8% 0.00in /  0mm 432 W/m2
08:34 71.6 °F /  22 °C 63.6 °F /  17.6 °C 29.85in /  1010.7hPa WNW 3.1mph /  5km/h 10mph /  16.1km/h 75.8% 0.00in /  0mm 459 W/m2
08:39 71.7 °F /  22.1 °C 63.9 °F /  17.7 °C 29.85in /  1010.7hPa West 0.6mph /  1km/h 10mph /  16.1km/h 76.5% 0.00in /  0mm 462 W/m2
08:44 72 °F /  22.2 °C 64.4 °F /  18 °C 29.85in /  1010.7hPa WNW 3.7mph /  6km/h 12mph /  19.3km/h 77% 0.00in /  0mm 478 W/m2
08:49 72.1 °F /  22.3 °C 63.6 °F /  17.6 °C 29.85in /  1010.7hPa WNW 3.3mph /  5.3km/h 12mph /  19.3km/h 74.8% 0.00in /  0mm 512 W/m2
08:54 72 °F /  22.2 °C 64.2 °F /  17.9 °C 29.85in /  1010.7hPa WNW 2.9mph /  4.7km/h 12mph /  19.3km/h 76.3% 0.00in /  0mm 536 W/m2
08:59 72.3 °F /  22.4 °C 64.1 °F /  17.8 °C 29.85in /  1010.7hPa WNW 2.6mph /  4.2km/h 12mph /  19.3km/h 75.3% 0.00in /  0mm 540 W/m2
09:04 72.7 °F /  22.6 °C 64 °F /  17.8 °C 29.85in /  1010.7hPa WNW 3.3mph /  5.3km/h 12mph /  19.3km/h 74.1% 0.00in /  0mm 564 W/m2
09:09 72.9 °F /  22.7 °C 63.5 °F /  17.5 °C 29.85in /  1010.7hPa NW 3.2mph /  5.1km/h 11mph /  17.7km/h 72.5% 0.00in /  0mm 580 W/m2
09:14 72.9 °F /  22.7 °C 63.7 °F /  17.6 °C 29.85in /  1010.7hPa NW 2.1mph /  3.4km/h 11mph /  17.7km/h 72.8% 0.00in /  0mm 649 W/m2
09:19 73 °F /  22.8 °C 63.7 °F /  17.6 °C 29.85in /  1010.7hPa NW 1.3mph /  2.1km/h 11mph /  17.7km/h 72.6% 0.00in /  0mm 649 W/m2
09:24 73.1 °F /  22.8 °C 63.7 °F /  17.6 °C 29.85in /  1010.7hPa NW 2.5mph /  4km/h 11mph /  17.7km/h 72.6% 0.00in /  0mm 302 W/m2
09:29 72.6 °F /  22.6 °C 62.9 °F /  17.2 °C 29.85in /  1010.7hPa NW 2.7mph /  4.3km/h 11mph /  17.7km/h 71.4% 0.00in /  0mm 174 W/m2
09:34 72 °F /  22.2 °C 62.4 °F /  16.9 °C 29.85in /  1010.7hPa NW 3.9mph /  6.3km/h 11mph /  17.7km/h 71.8% 0.00in /  0mm 185 W/m2
09:39 71.4 °F /  21.9 °C 62.3 °F /  16.8 °C 29.85in /  1010.7hPa WNW 1.4mph /  2.3km/h 10mph /  16.1km/h 73% 0.00in /  0mm 213 W/m2
09:44 71 °F /  21.7 °C 62.2 °F /  16.8 °C 29.85in /  1010.7hPa NW 2.3mph /  3.7km/h 10mph /  16.1km/h 73.8% 0.00in /  0mm 236 W/m2
09:49 70.8 °F /  21.6 °C 62.2 °F /  16.8 °C 29.86in /  1011.1hPa NW 1.4mph /  2.3km/h 10mph /  16.1km/h 74% 0.00in /  0mm 151 W/m2
09:54 70.7 °F /  21.5 °C 62.4 °F /  16.9 °C 29.86in /  1011.1hPa NW 1.3mph /  2.1km/h 10mph /  16.1km/h 74.9% 0.00in /  0mm 144 W/m2
09:59 70.6 °F /  21.4 °C 62.3 °F /  16.8 °C 29.86in /  1011.1hPa NNW 3.1mph /  5km/h 10mph /  16.1km/h 75% 0.00in /  0mm 137 W/m2
10:04 70.5 °F /  21.4 °C 62.2 °F /  16.8 °C 29.86in /  1011.1hPa NNW 2.3mph /  3.7km/h 10mph /  16.1km/h 74.9% 0.00in /  0mm 239 W/m2
10:09 70.6 °F /  21.4 °C 62.7 °F /  17.1 °C 29.86in /  1011.1hPa WNW 3.7mph /  6km/h 11mph /  17.7km/h 76% 0.00in /  0mm 221 W/m2
10:14 71.1 °F /  21.7 °C 62.5 °F /  16.9 °C 29.86in /  1011.1hPa WNW 1.5mph /  2.4km/h 11mph /  17.7km/h 74.1% 0.00in /  0mm 304 W/m2
10:19 71.4 °F /  21.9 °C 62.8 °F /  17.1 °C 29.86in /  1011.1hPa NW 2.6mph /  4.2km/h 13mph /  20.9km/h 74.1% 0.00in /  0mm 185 W/m2
10:24 71.5 °F /  21.9 °C 62 °F /  16.7 °C 29.87in /  1011.4hPa WNW 4.7mph /  7.6km/h 15mph /  24.1km/h 72% 0.00in /  0mm 206 W/m2
10:29 71.3 °F /  21.8 °C 61.7 °F /  16.5 °C 29.87in /  1011.4hPa WNW 4.6mph /  7.4km/h 15mph /  24.1km/h 71.8% 0.00in /  0mm 202 W/m2
10:34 71.2 °F /  21.8 °C 62 °F /  16.7 °C 29.87in /  1011.4hPa WNW 3.3mph /  5.3km/h 15mph /  24.1km/h 72.6% 0.00in /  0mm 320 W/m2
10:39 71.4 °F /  21.9 °C 61.9 °F /  16.6 °C 29.87in /  1011.4hPa NW 3.4mph /  5.5km/h 15mph /  24.1km/h 71.9% 0.00in /  0mm 250 W/m2
10:44 71.5 °F /  21.9 °C 61.5 °F /  16.4 °C 29.87in /  1011.4hPa NW 6.1mph /  9.8km/h 15mph /  24.1km/h 70.7% 0.00in /  0mm 482 W/m2
10:49 71.6 °F /  22 °C 61.5 °F /  16.4 °C 29.87in /  1011.4hPa NNW 4.4mph /  7.1km/h 16mph /  25.7km/h 70.5% 0.00in /  0mm 997 W/m2
10:54 72.2 °F /  22.3 °C 62.4 °F /  16.9 °C 29.88in /  1011.7hPa NW 4.9mph /  7.9km/h 16mph /  25.7km/h 71.3% 0.00in /  0mm 1009 W/m2
10:59 72.6 °F /  22.6 °C 61.4 °F /  16.3 °C 29.88in /  1011.7hPa NNW 5.2mph /  8.4km/h 16mph /  25.7km/h 67.9% 0.00in /  0mm 570 W/m2
11:04 72.5 °F /  22.5 °C 61.5 °F /  16.4 °C 29.88in /  1011.7hPa NW 4.5mph /  7.2km/h 16mph /  25.7km/h 68.2% 0.00in /  0mm 570 W/m2
11:09 72.5 °F /  22.5 °C 61.5 °F /  16.4 °C 29.88in /  1011.7hPa WNW 3.4mph /  5.5km/h 13mph /  20.9km/h 68.2% 0.00in /  0mm 1076 W/m2
11:14 73 °F /  22.8 °C 62.4 °F /  16.9 °C 29.88in /  1011.7hPa WNW 3.5mph /  5.6km/h 13mph /  20.9km/h 69.5% 0.00in /  0mm 928 W/m2
11:19 74.3 °F /  23.5 °C 63.4 °F /  17.4 °C 29.88in /  1011.7hPa NW 2.8mph /  4.5km/h 13mph /  20.9km/h 68.8% 0.00in /  0mm 965 W/m2
11:24 75.4 °F /  24.1 °C 63 °F /  17.2 °C 29.88in /  1011.7hPa WNW 4.3mph /  6.9km/h 13mph /  20.9km/h 65.4% 0.00in /  0mm 983 W/m2
11:29 76 °F /  24.4 °C 63 °F /  17.2 °C 29.88in /  1011.7hPa NW 3.7mph /  6km/h 13mph /  20.9km/h 64.1% 0.00in /  0mm 1100 W/m2
11:34 76.3 °F /  24.6 °C 63 °F /  17.2 °C 29.88in /  1011.7hPa NW 3mph /  4.8km/h 13mph /  20.9km/h 63.5% 0.00in /  0mm 253 W/m2
11:39 76.3 °F /  24.6 °C 63.2 °F /  17.3 °C 29.88in /  1011.7hPa NW 2.6mph /  4.2km/h 11mph /  17.7km/h 63.9% 0.00in /  0mm 1062 W/m2
11:44 76.5 °F /  24.7 °C 63.2 °F /  17.3 °C 29.88in /  1011.7hPa WNW 3.3mph /  5.3km/h 11mph /  17.7km/h 63.5% 0.00in /  0mm 320 W/m2
11:49 76.6 °F /  24.8 °C 63.2 °F /  17.3 °C 29.88in /  1011.7hPa NW 3.8mph /  6.1km/h 16mph /  25.7km/h 63.3% 0.00in /  0mm 1111 W/m2
11:54 76.8 °F /  24.9 °C 63.2 °F /  17.3 °C 29.88in /  1011.7hPa NW 6.4mph /  10.3km/h 16mph /  25.7km/h 62.8% 0.00in /  0mm 1046 W/m2
11:59 77 °F /  25 °C 63 °F /  17.2 °C 29.88in /  1011.7hPa WNW 5.6mph /  9km/h 16mph /  25.7km/h 62% 0.00in /  0mm 1055 W/m2
12:00 77.2 °F /  25.1 °C 63.6 °F /  17.6 °C 29.88in /  1011.7hPa WNW 2mph /  3.2km/h 16mph /  25.7km/h 63% 0.00in /  0mm 1055 W/m2
12:09 78.2 °F /  25.7 °C 63.2 °F /  17.3 °C 29.88in /  1011.7hPa WNW 6mph /  9.7km/h 16mph /  25.7km/h 59.9% 0.00in /  0mm 1097 W/m2
12:14 78.2 °F /  25.7 °C 61.9 °F /  16.6 °C 29.88in /  1011.7hPa WNW 5.7mph /  9.2km/h 16mph /  25.7km/h 57.4% 0.00in /  0mm 1042 W/m2
12:19 77.8 °F /  25.4 °C 61.5 °F /  16.4 °C 29.88in /  1011.7hPa WNW 6.8mph /  10.9km/h 16mph /  25.7km/h 57.3% 0.00in /  0mm 1155 W/m2
12:24 77.6 °F /  25.3 °C 63 °F /  17.2 °C 29.88in /  1011.7hPa WNW 3.6mph /  5.8km/h 16mph /  25.7km/h 60.7% 0.00in /  0mm 1155 W/m2
12:29 77.8 °F /  25.4 °C 62.6 °F /  17 °C 29.88in /  1011.7hPa West 4.5mph /  7.2km/h 16mph /  25.7km/h 59.6% 0.00in /  0mm 979 W/m2
12:34 77.6 °F /  25.3 °C 61.5 °F /  16.4 °C 29.88in /  1011.7hPa WNW 6.4mph /  10.3km/h 17mph /  27.4km/h 57.5% 0.00in /  0mm 942 W/m2
12:39 77.4 °F /  25.2 °C 62.2 °F /  16.8 °C 29.88in /  1011.7hPa West 4.4mph /  7.1km/h 17mph /  27.4km/h 59.4% 0.00in /  0mm 942 W/m2
12:44 77.6 °F /  25.3 °C 62.4 °F /  16.9 °C 29.88in /  1011.7hPa NW 2.6mph /  4.2km/h 17mph /  27.4km/h 59.7% 0.00in /  0mm 951 W/m2
12:49 78 °F /  25.6 °C 62.6 °F /  17 °C 29.88in /  1011.7hPa WNW 3.7mph /  6km/h 17mph /  27.4km/h 59.3% 0.00in /  0mm 988 W/m2
12:54 78.2 °F /  25.7 °C 61.8 °F /  16.6 °C 29.88in /  1011.7hPa WNW 6.6mph /  10.6km/h 17mph /  27.4km/h 57.1% 0.00in /  0mm 986 W/m2
12:59 78.2 °F /  25.7 °C 62 °F /  16.7 °C 29.88in /  1011.7hPa WNW 3.8mph /  6.1km/h 17mph /  27.4km/h 57.4% 0.00in /  0mm 988 W/m2
13:04 78.3 °F /  25.7 °C 62 °F /  16.7 °C 29.88in /  1011.7hPa WNW 5.5mph /  8.9km/h 17mph /  27.4km/h 57.4% 0.00in /  0mm 998 W/m2
13:09 78.5 °F /  25.8 °C 62.7 °F /  17.1 °C 29.88in /  1011.7hPa NW 1.8mph /  2.9km/h 14mph /  22.5km/h 58.4% 0.00in /  0mm 958 W/m2
13:14 78.8 °F /  26 °C 62.5 °F /  16.9 °C 29.88in /  1011.7hPa NW 4.3mph /  6.9km/h 16mph /  25.7km/h 57.4% 0.00in /  0mm 954 W/m2
13:19 79 °F /  26.1 °C 62.3 °F /  16.8 °C 29.88in /  1011.7hPa WNW 5.4mph /  8.7km/h 16mph /  25.7km/h 56.6% 0.00in /  0mm 954 W/m2
13:24 79.1 °F /  26.2 °C 62 °F /  16.7 °C 29.88in /  1011.7hPa NW 5.2mph /  8.4km/h 16mph /  25.7km/h 55.7% 0.00in /  0mm 954 W/m2
13:29 79.2 °F /  26.2 °C 61.8 °F /  16.6 °C 29.88in /  1011.7hPa WNW 4.7mph /  7.6km/h 16mph /  25.7km/h 55.2% 0.00in /  0mm 953 W/m2
13:34 79.3 °F /  26.3 °C 62.4 °F /  16.9 °C 29.88in /  1011.7hPa WNW 3.1mph /  5km/h 16mph /  25.7km/h 56.2% 0.00in /  0mm 953 W/m2
13:39 79.5 °F /  26.4 °C 61.7 °F /  16.5 °C 29.88in /  1011.7hPa WNW 5.9mph /  9.5km/h 15mph /  24.1km/h 54.6% 0.00in /  0mm 953 W/m2
13:44 79.5 °F /  26.4 °C 61.6 °F /  16.4 °C 29.88in /  1011.7hPa WNW 4.5mph /  7.2km/h 15mph /  24.1km/h 54.5% 0.00in /  0mm 963 W/m2
13:49 79.4 °F /  26.3 °C 61.4 °F /  16.3 °C 29.88in /  1011.7hPa WNW 3.6mph /  5.8km/h 15mph /  24.1km/h 54.1% 0.00in /  0mm 970 W/m2
13:54 79.6 °F /  26.4 °C 62.2 °F /  16.8 °C 29.88in /  1011.7hPa WNW 4.7mph /  7.6km/h 16mph /  25.7km/h 55.2% 0.00in /  0mm 1005 W/m2
13:59 79.8 °F /  26.6 °C 61.7 °F /  16.5 °C 29.88in /  1011.7hPa West 3.5mph /  5.6km/h 16mph /  25.7km/h 54% 0.00in /  0mm 1005 W/m2
14:04 79.7 °F /  26.5 °C 62.5 °F /  16.9 °C 29.88in /  1011.7hPa WNW 2.5mph /  4km/h 16mph /  25.7km/h 55.7% 0.00in /  0mm 1065 W/m2
14:09 79.8 °F /  26.6 °C 62 °F /  16.7 °C 29.89in /  1012.1hPa WNW 3.5mph /  5.6km/h 14mph /  22.5km/h 54.8% 0.00in /  0mm 1060 W/m2
14:14 79.5 °F /  26.4 °C 61.9 °F /  16.6 °C 29.89in /  1012.1hPa WNW 4.4mph /  7.1km/h 14mph /  22.5km/h 55% 0.00in /  0mm 1113 W/m2
14:19 79.5 °F /  26.4 °C 62.5 °F /  16.9 °C 29.89in /  1012.1hPa WNW 1.2mph /  1.9km/h 14mph /  22.5km/h 56.2% 0.00in /  0mm 1095 W/m2
14:24 80 °F /  26.7 °C 63 °F /  17.2 °C 29.89in /  1012.1hPa NW 4.6mph /  7.4km/h 14mph /  22.5km/h 56.2% 0.00in /  0mm 1074 W/m2
14:29 80.1 °F /  26.7 °C 61.9 °F /  16.6 °C 29.89in /  1012.1hPa WNW 2.3mph /  3.7km/h 14mph /  22.5km/h 53.9% 0.00in /  0mm 691 W/m2
14:34 79.7 °F /  26.5 °C 62.2 °F /  16.8 °C 29.89in /  1012.1hPa WNW 2.5mph /  4km/h 14mph /  22.5km/h 55.1% 0.00in /  0mm 244 W/m2
14:39 79.3 °F /  26.3 °C 61.9 °F /  16.6 °C 29.89in /  1012.1hPa NW 2.4mph /  3.9km/h 12mph /  19.3km/h 55.3% 0.00in /  0mm 227 W/m2
14:44 79.2 °F /  26.2 °C 61.8 °F /  16.6 °C 29.89in /  1012.1hPa North 1mph /  1.6km/h 12mph /  19.3km/h 55.2% 0.00in /  0mm 953 W/m2
14:49 79.5 °F /  26.4 °C 62 °F /  16.7 °C 29.89in /  1012.1hPa NNW 1.2mph /  1.9km/h 12mph /  19.3km/h 55% 0.00in /  0mm 949 W/m2
14:54 79.7 °F /  26.5 °C 61.4 °F /  16.3 °C 29.89in /  1012.1hPa WNW 1.3mph /  2.1km/h 12mph /  19.3km/h 53.6% 0.00in /  0mm 916 W/m2
14:59 79.5 °F /  26.4 °C 61.7 °F /  16.5 °C 29.89in /  1012.1hPa WNW 1.2mph /  1.9km/h 12mph /  19.3km/h 54.7% 0.00in /  0mm 909 W/m2
15:04 79.4 °F /  26.3 °C 62.1 °F /  16.7 °C 29.89in /  1012.1hPa WNW 5.5mph /  8.9km/h 12mph /  19.3km/h 55.5% 0.00in /  0mm 911 W/m2
15:09 79.4 °F /  26.3 °C 61 °F /  16.1 °C 29.89in /  1012.1hPa West 4mph /  6.4km/h 14mph /  22.5km/h 53.6% 0.00in /  0mm 944 W/m2
15:14 79.7 °F /  26.5 °C 61.3 °F /  16.3 °C 29.89in /  1012.1hPa West 3.8mph /  6.1km/h 14mph /  22.5km/h 53.4% 0.00in /  0mm 991 W/m2
15:19 79.8 °F /  26.6 °C 62 °F /  16.7 °C 29.89in /  1012.1hPa NW 1.9mph /  3.1km/h 14mph /  22.5km/h 54.6% 0.00in /  0mm 265 W/m2
15:24 79.9 °F /  26.6 °C 62.3 °F /  16.8 °C 29.90in /  1012.4hPa NW 0.8mph /  1.3km/h 14mph /  22.5km/h 54.9% 0.00in /  0mm 944 W/m2
15:29 80.3 °F /  26.8 °C 61.6 °F /  16.4 °C 29.89in /  1012.1hPa NNW 1.8mph /  2.9km/h 14mph /  22.5km/h 53% 0.00in /  0mm 944 W/m2
15:34 80.3 °F /  26.8 °C 61.5 °F /  16.4 °C 29.90in /  1012.4hPa WNW 3.2mph /  5.1km/h 15mph /  24.1km/h 52.7% 0.00in /  0mm 292 W/m2
15:39 80.2 °F /  26.8 °C 61.5 °F /  16.4 °C 29.89in /  1012.1hPa NW 3.4mph /  5.5km/h 15mph /  24.1km/h 53% 0.00in /  0mm 842 W/m2
15:44 80.1 °F /  26.7 °C 61.3 °F /  16.3 °C 29.90in /  1012.4hPa NW 4.6mph /  7.4km/h 15mph /  24.1km/h 52.6% 0.00in /  0mm 896 W/m2
15:49 80.2 °F /  26.8 °C 60.9 °F /  16.1 °C 29.90in /  1012.4hPa NW 2.1mph /  3.4km/h 15mph /  24.1km/h 51.8% 0.00in /  0mm 269 W/m2
15:54 80.1 °F /  26.7 °C 60.9 °F /  16.1 °C 29.90in /  1012.4hPa WNW 1.6mph /  2.6km/h 15mph /  24.1km/h 52% 0.00in /  0mm 851 W/m2
15:59 80 °F /  26.7 °C 61.2 °F /  16.2 °C 29.90in /  1012.4hPa WNW 2.3mph /  3.7km/h 15mph /  24.1km/h 52.8% 0.00in /  0mm 151 W/m2
16:00 79.8 °F /  26.6 °C 60.6 °F /  15.9 °C 29.90in /  1012.4hPa WNW 0.3mph /  0.5km/h 15mph /  24.1km/h 52% 0.00in /  0mm 118 W/m2
16:09 79.8 °F /  26.6 °C 61.3 °F /  16.3 °C 29.90in /  1012.4hPa WNW 3.7mph /  6km/h 11mph /  17.7km/h 53.3% 0.00in /  0mm 729 W/m2
16:14 79.8 °F /  26.6 °C 61.4 °F /  16.3 °C 29.90in /  1012.4hPa NW 2.8mph /  4.5km/h 11mph /  17.7km/h 53.4% 0.00in /  0mm 733 W/m2
16:19 79.7 °F /  26.5 °C 61.3 °F /  16.3 °C 29.90in /  1012.4hPa NW 2mph /  3.2km/h 11mph /  17.7km/h 53.5% 0.00in /  0mm 714 W/m2
16:24 79.6 °F /  26.4 °C 61.5 °F /  16.4 °C 29.90in /  1012.4hPa WNW 4.2mph /  6.8km/h 11mph /  17.7km/h 54% 0.00in /  0mm 51 W/m2
16:29 79.6 °F /  26.4 °C 61.4 °F /  16.3 °C 29.90in /  1012.4hPa WNW 3.3mph /  5.3km/h 11mph /  17.7km/h 53.8% 0.00in /  0mm 47 W/m2
16:34 79.6 °F /  26.4 °C 61.5 °F /  16.4 °C 29.91in /  1012.8hPa NW 3mph /  4.8km/h 13mph /  20.9km/h 54% 0.00in /  0mm 53 W/m2
16:39 79.5 °F /  26.4 °C 61 °F /  16.1 °C 29.91in /  1012.8hPa WNW 4.8mph /  7.7km/h 13mph /  20.9km/h 53.2% 0.00in /  0mm 53 W/m2
16:44 79.4 °F /  26.3 °C 61.7 °F /  16.5 °C 29.91in /  1012.8hPa West 2mph /  3.2km/h 13mph /  20.9km/h 54.8% 0.00in /  0mm 51 W/m2
16:49 79.3 °F /  26.3 °C 61.4 °F /  16.3 °C 29.91in /  1012.8hPa WNW 2.9mph /  4.7km/h 14mph /  22.5km/h 54.2% 0.00in /  0mm 54 W/m2
16:54 79.3 °F /  26.3 °C 61.4 °F /  16.3 °C 29.91in /  1012.8hPa WSW 1.8mph /  2.9km/h 14mph /  22.5km/h 54.3% 0.00in /  0mm 56 W/m2
16:59 79.3 °F /  26.3 °C 61 °F /  16.1 °C 29.92in /  1013.1hPa West 3.9mph /  6.3km/h 14mph /  22.5km/h 53.6% 0.00in /  0mm 42 W/m2
17:04 79.3 °F /  26.3 °C 60.6 °F /  15.9 °C 29.92in /  1013.1hPa WNW 2.8mph /  4.5km/h 14mph /  22.5km/h 52.8% 0.00in /  0mm 40 W/m2
17:09 79.1 °F /  26.2 °C 60.5 °F /  15.8 °C 29.92in /  1013.1hPa WNW 4.5mph /  7.2km/h 15mph /  24.1km/h 52.8% 0.00in /  0mm 40 W/m2
17:14 79 °F /  26.1 °C 60.3 °F /  15.7 °C 29.92in /  1013.1hPa NW 3.4mph /  5.5km/h 15mph /  24.1km/h 52.8% 0.00in /  0mm 40 W/m2
17:19 78.9 °F /  26.1 °C 60.6 °F /  15.9 °C 29.92in /  1013.1hPa WSW 1.8mph /  2.9km/h 15mph /  24.1km/h 53.5% 0.00in /  0mm 39 W/m2
17:24 79 °F /  26.1 °C 60.8 °F /  16 °C 29.92in /  1013.1hPa WNW 3.6mph /  5.8km/h 15mph /  24.1km/h 53.7% 0.00in /  0mm 37 W/m2
17:29 78.9 °F /  26.1 °C 59.9 °F /  15.5 °C 29.92in /  1013.1hPa NNW 2.4mph /  3.9km/h 15mph /  24.1km/h 52.3% 0.00in /  0mm 35 W/m2
17:34 78.8 °F /  26 °C 60.1 °F /  15.6 °C 29.93in /  1013.4hPa NW 2.9mph /  4.7km/h 15mph /  24.1km/h 52.8% 0.00in /  0mm 35 W/m2
17:39 78.8 °F /  26 °C 60.1 °F /  15.6 °C 29.93in /  1013.4hPa WNW 1.7mph /  2.7km/h 14mph /  22.5km/h 52.8% 0.00in /  0mm 35 W/m2
17:44 78.8 °F /  26 °C 60.8 °F /  16 °C 29.93in /  1013.4hPa NW 2.2mph /  3.5km/h 14mph /  22.5km/h 54% 0.00in /  0mm 33 W/m2
17:49 78.8 °F /  26 °C 59.7 °F /  15.4 °C 29.93in /  1013.4hPa WNW 4.6mph /  7.4km/h 14mph /  22.5km/h 52% 0.00in /  0mm 33 W/m2
17:54 78.6 °F /  25.9 °C 59.7 °F /  15.4 °C 29.93in /  1013.4hPa WNW 2.8mph /  4.5km/h 14mph /  22.5km/h 52.3% 0.00in /  0mm 32 W/m2
17:59 78.4 °F /  25.8 °C 59.7 °F /  15.4 °C 29.93in /  1013.4hPa NNW 1.4mph /  2.3km/h 14mph /  22.5km/h 52.7% 0.00in /  0mm 32 W/m2
18:04 78.3 °F /  25.7 °C 59.6 °F /  15.3 °C 29.93in /  1013.4hPa NNW 1.7mph /  2.7km/h 14mph /  22.5km/h 52.8% 0.00in /  0mm 32 W/m2
18:09 78.1 °F /  25.6 °C 59.8 °F /  15.4 °C 29.93in /  1013.4hPa NW 1.2mph /  1.9km/h 6mph /  9.7km/h 53.5% 0.00in /  0mm 30 W/m2
18:14 77.9 °F /  25.5 °C 59.8 °F /  15.4 °C 29.93in /  1013.4hPa NW 1.1mph /  1.8km/h 7mph /  11.3km/h 53.8% 0.00in /  0mm 30 W/m2
18:19 77.7 °F /  25.4 °C 59.5 °F /  15.3 °C 29.93in /  1013.4hPa NW 1.8mph /  2.9km/h 11mph /  17.7km/h 53.5% 0.00in /  0mm 28 W/m2
18:24 77.6 °F /  25.3 °C 59.5 °F /  15.3 °C 29.94in /  1013.8hPa NW 2.3mph /  3.7km/h 11mph /  17.7km/h 53.7% 0.00in /  0mm 28 W/m2
18:29 77.4 °F /  25.2 °C 59.4 °F /  15.2 °C 29.94in /  1013.8hPa NW 0.8mph /  1.3km/h 11mph /  17.7km/h 53.8% 0.00in /  0mm 32 W/m2
18:34 77.3 °F /  25.2 °C 59.2 °F /  15.1 °C 29.94in /  1013.8hPa NW 3.2mph /  5.1km/h 11mph /  17.7km/h 53.6% 0.00in /  0mm 32 W/m2
18:39 77.1 °F /  25.1 °C 59.2 °F /  15.1 °C 29.94in /  1013.8hPa NW 2.3mph /  3.7km/h 11mph /  17.7km/h 54% 0.00in /  0mm 28 W/m2
18:44 76.9 °F /  24.9 °C 59.6 °F /  15.3 °C 29.95in /  1014.1hPa NW 0.1mph /  0.2km/h 11mph /  17.7km/h 55.1% 0.00in /  0mm 28 W/m2
18:49 76.7 °F /  24.8 °C 59.5 °F /  15.3 °C 29.95in /  1014.1hPa NW 1.9mph /  3.1km/h 11mph /  17.7km/h 55.3% 0.00in /  0mm 28 W/m2
18:54 76.6 °F /  24.8 °C 59.4 °F /  15.2 °C 29.95in /  1014.1hPa NNW 1.1mph /  1.8km/h 11mph /  17.7km/h 55.2% 0.00in /  0mm 25 W/m2
18:59 76.5 °F /  24.7 °C 59.6 °F /  15.3 °C 29.95in /  1014.1hPa NW 1mph /  1.6km/h 11mph /  17.7km/h 55.8% 0.00in /  0mm 23 W/m2
19:04 76.4 °F /  24.7 °C 59.7 °F /  15.4 °C 29.95in /  1014.1hPa NW 0.9mph /  1.4km/h 11mph /  17.7km/h 56.3% 0.00in /  0mm 21 W/m2
19:09 76.4 °F /  24.7 °C 60.3 °F /  15.7 °C 29.95in /  1014.1hPa NW 0.1mph /  0.2km/h 5mph /  8km/h 57.5% 0.00in /  0mm 21 W/m2
19:14 76.3 °F /  24.6 °C 60.3 °F /  15.7 °C 29.95in /  1014.1hPa NW 1.3mph /  2.1km/h 7mph /  11.3km/h 57.8% 0.00in /  0mm 19 W/m2
19:19 76.2 °F /  24.6 °C 60.1 °F /  15.6 °C 29.96in /  1014.4hPa NW 0.1mph /  0.2km/h 7mph /  11.3km/h 57.5% 0.00in /  0mm 19 W/m2
19:24 76 °F /  24.4 °C 60.4 °F /  15.8 °C 29.96in /  1014.4hPa NW 0.1mph /  0.2km/h 7mph /  11.3km/h 58.4% 0.00in /  0mm 18 W/m2
19:29 76 °F /  24.4 °C 60.5 °F /  15.8 °C 29.96in /  1014.4hPa Calm   7mph /  11.3km/h 58.8% 0.00in /  0mm 16 W/m2
19:34 75.8 °F /  24.3 °C 60.5 °F /  15.8 °C 29.96in /  1014.4hPa Calm   7mph /  11.3km/h 59% 0.00in /  0mm 14 W/m2
19:39 75.7 °F /  24.3 °C 60.3 °F /  15.7 °C 29.97in /  1014.8hPa Calm   1mph /  1.6km/h 58.9% 0.00in /  0mm 12 W/m2
19:44 75.5 °F /  24.2 °C 60.3 °F /  15.7 °C 29.97in /  1014.8hPa Calm   1mph /  1.6km/h 59.1% 0.00in /  0mm 11 W/m2
19:49 75.4 °F /  24.1 °C 60.5 °F /  15.8 °C 29.97in /  1014.8hPa Calm   1mph /  1.6km/h 60% 0.00in /  0mm 9 W/m2
19:54 75.2 °F /  24 °C 60.4 °F /  15.8 °C 29.97in /  1014.8hPa Calm   1mph /  1.6km/h 60% 0.00in /  0mm 7 W/m2
19:59 75 °F /  23.9 °C 60.6 °F /  15.9 °C 29.97in /  1014.8hPa Calm   1mph /  1.6km/h 60.8% 0.00in /  0mm 0 W/m2
20:00 74.9 °F /  23.8 °C 60.6 °F /  15.9 °C 29.97in /  1014.8hPa Calm   1mph /  1.6km/h 61% 0.00in /  0mm 0 W/m2
20:09 74.6 °F /  23.7 °C 60.8 °F /  16 °C 29.97in /  1014.8hPa Calm     62.1% 0.00in /  0mm 0 W/m2
20:14 74.3 °F /  23.5 °C 60.9 °F /  16.1 °C 29.97in /  1014.8hPa Calm     63% 0.00in /  0mm 0 W/m2
20:19 74 °F /  23.3 °C 61 °F /  16.1 °C 29.98in /  1015.1hPa Calm     63.9% 0.00in /  0mm 0 W/m2
20:24 73.6 °F /  23.1 °C 61 °F /  16.1 °C 29.98in /  1015.1hPa Calm     64.7% 0.00in /  0mm 0 W/m2
20:29 73.2 °F /  22.9 °C 61.2 °F /  16.2 °C 29.98in /  1015.1hPa Calm     66.1% 0.00in /  0mm 0 W/m2
20:34 72.8 °F /  22.7 °C 61.3 °F /  16.3 °C 29.98in /  1015.1hPa Calm     67.2% 0.00in /  0mm 0 W/m2
20:39 72.5 °F /  22.5 °C 61.2 °F /  16.2 °C 29.98in /  1015.1hPa Calm     67.6% 0.00in /  0mm 0 W/m2
20:44 72.3 °F /  22.4 °C 61.1 °F /  16.2 °C 29.98in /  1015.1hPa Calm     67.9% 0.00in /  0mm 0 W/m2
20:49 72.1 °F /  22.3 °C 60.9 °F /  16.1 °C 29.98in /  1015.1hPa Calm     67.8% 0.00in /  0mm 0 W/m2
20:54 72 °F /  22.2 °C 60.5 °F /  15.8 °C 29.99in /  1015.5hPa Calm     67.2% 0.00in /  0mm 0 W/m2
20:59 71.8 °F /  22.1 °C 60.3 °F /  15.7 °C 29.99in /  1015.5hPa Calm     67% 0.00in /  0mm 0 W/m2
21:04 71.7 °F /  22.1 °C 60.7 °F /  15.9 °C 29.99in /  1015.5hPa Calm     68.4% 0.00in /  0mm 0 W/m2
21:09 71.4 °F /  21.9 °C 61.1 °F /  16.2 °C 29.99in /  1015.5hPa Calm     69.9% 0.00in /  0mm 0 W/m2
21:14 71.1 °F /  21.7 °C 60.8 °F /  16 °C 30.00in /  1015.8hPa Calm     70% 0.00in /  0mm 0 W/m2
21:19 70.8 °F /  21.6 °C 60.8 °F /  16 °C 30.00in /  1015.8hPa Calm     70.8% 0.00in /  0mm 0 W/m2
21:24 70.4 °F /  21.3 °C 60.9 °F /  16.1 °C 30.00in /  1015.8hPa Calm     71.8% 0.00in /  0mm 0 W/m2
21:25 70.3 °F /  21.3 °C 60.9 °F /  16.1 °C 30.00in /  1015.8hPa Calm     72% 0.00in /  0mm 0 W/m2
21:30 69.9 °F /  21.1 °C 60.1 °F /  15.6 °C 30.00in /  1015.8hPa Calm     71% 0.00in /  0mm 0 W/m2
22:00 68.5 °F /  20.3 °C 59.9 °F /  15.5 °C 30.01in /  1016.1hPa Calm     74% 0.00in /  0mm 0 W/m2
23:00 65.9 °F /  18.8 °C 59.2 °F /  15.1 °C 30.02in /  1016.5hPa Calm     79% 0.00in /  0mm 0 W/m2
23:30 65.2 °F /  18.4 °C 57.8 °F /  14.3 °C 30.03in /  1016.8hPa Calm     77% 0.00in /  0mm 0 W/m2
Hartford County Weather
Compliments of Weather Underground - 2 mb